To NAV CANADA Home Page Login to a new session Search on AWWS site Feedback and Comments Disclaimer Vers la page française équivalente Tips FAQ What's new on the site To the Forecasts and Observations / NOTAM section To "File a Flight Plan" website Publications and other links Update of the User's profile FIC Telephone Numbers My Weather Data Folder Route Weather Data Regional Weather Data Local Weather Data To the Forecasts and Observations / NOTAM section
Request Generated 05/25/2017 at 01:15:14 UTC . Weather information available at that time is displayed.

METAR/TAF

HAY RIVER/MERLYN CARTER AIRPORT/NT    

METAR CYHY 250100Z 33012KT 15SM SCT065 BKN075 12/01 A2973 RMK SC4AC2
SLP075=
METAR CYHY 250000Z 32011KT 15SM SCT044 SCT064CB BKN082 14/04 A2972
RMK SC3CB1AC2 SLP071 DENSITY ALT 800FT=
METAR CYHY 242300Z 32010G16KT 15SM VCSH FEW040 SCT050CB SCT067 15/04
A2971 RMK SC2CB1AC1 SLP068 DENSITY ALT 900FT=

TAF CYHY 242338Z 2500/2512 32008KT P6SM SCT050 TEMPO 2500/2505 BKN050
FM250500 32005KT P6SM SCT030 BKN050 TEMPO 2505/2512 BKN030
RMK NXT FCST BY 250600Z=
Your time UTC time
Weather data provided by Environment Canada and NAV CANADA